Montecarlo, Argentina
Current Conditions -  °F | °C
As of 7:00 PM on Sunday 23 Nov 2014 (Local Time) from SARI Reporting Station
Clear Clear  
Wind Chill: 81°   Ceiling: Unl
Heat Index: 82°   Visibility: 6mi
Dew Point: 64°   Wind: 6mph
Humidity: 58%   Direction: 180°S
Pressure: 29.85"   Gusts: NA
Location:  26.62°S, 54.75°W
Report Text: SARI 232200Z 18005KT CAVOK 27/18 Q1011
Loading
Personal Weather Stations






























Interactive Weather Map New forecast layout! Learn more

10-Day Weather Forecast

Advertisements
Track Severe Weather on mobile